createdAt,value
2019-05-14T00:00:00.646Z,1.60
2019-05-14T00:02:26.975Z,3.13
2019-05-14T00:04:53.305Z,1.50
2019-05-14T00:07:22.109Z,1.47
2019-05-14T00:09:48.142Z,1.67
2019-05-14T00:12:14.462Z,1.97
2019-05-14T00:14:43.817Z,1.87
2019-05-14T00:17:11.347Z,1.50
2019-05-14T00:19:37.818Z,1.30
2019-05-14T00:22:04.162Z,1.23
2019-05-14T00:24:32.339Z,1.10
2019-05-14T00:26:58.859Z,1.50
2019-05-14T00:29:25.191Z,1.30
2019-05-14T00:31:51.793Z,1.20
2019-05-14T00:34:18.321Z,1.50
2019-05-14T00:36:44.764Z,1.40
2019-05-14T00:39:11.387Z,1.30
2019-05-14T00:41:43.918Z,1.60
2019-05-14T00:44:10.334Z,1.70
2019-05-14T00:46:36.665Z,1.07
2019-05-14T00:49:04.059Z,1.27
2019-05-14T00:51:31.808Z,1.47
2019-05-14T00:53:58.453Z,1.80
2019-05-14T00:56:25.280Z,1.47
2019-05-14T00:58:52.335Z,1.50
2019-05-14T01:01:21.346Z,1.53
2019-05-14T01:03:47.072Z,0.97
2019-05-14T01:06:13.459Z,1.63
2019-05-14T01:08:41.347Z,1.50
2019-05-14T01:11:08.242Z,1.30
2019-05-14T01:13:34.568Z,1.33
2019-05-14T01:16:01.590Z,1.00
2019-05-14T01:18:28.254Z,1.20
2019-05-14T01:20:55.716Z,1.57
2019-05-14T01:23:22.063Z,1.20
2019-05-14T01:25:48.600Z,1.20
2019-05-14T01:28:14.928Z,1.67
2019-05-14T01:30:41.325Z,1.37
2019-05-14T01:33:07.653Z,1.07
2019-05-14T01:35:34.184Z,1.30
2019-05-14T01:38:02.743Z,1.40
2019-05-14T01:40:31.253Z,1.50
2019-05-14T01:42:57.377Z,1.97
2019-05-14T01:45:27.948Z,1.30
2019-05-14T01:47:52.161Z,1.40
2019-05-14T01:50:21.567Z,1.40
2019-05-14T01:52:47.915Z,1.33
2019-05-14T01:55:14.465Z,2.40
2019-05-14T01:57:42.547Z,3.33
2019-05-14T02:00:11.470Z,4.23
2019-05-14T02:02:38.799Z,5.40
2019-05-14T02:05:05.543Z,6.97
2019-05-14T02:07:31.895Z,5.77
2019-05-14T02:09:58.257Z,5.17
2019-05-14T02:12:24.928Z,4.77
2019-05-14T02:14:51.428Z,2.80
2019-05-14T02:17:18.097Z,3.17
2019-05-14T02:19:44.432Z,3.33
2019-05-14T02:22:11.315Z,3.70
2019-05-14T02:24:37.853Z,2.90
2019-05-14T02:27:04.192Z,3.03
2019-05-14T02:29:32.038Z,2.80
2019-05-14T02:31:59.027Z,2.43
2019-05-14T02:34:25.792Z,2.60
2019-05-14T02:36:52.156Z,1.70
2019-05-14T02:39:19.620Z,1.50
2019-05-14T02:41:49.633Z,2.87
2019-05-14T02:44:14.454Z,1.87
2019-05-14T02:46:40.912Z,2.30
2019-05-14T02:49:10.155Z,1.63
2019-05-14T02:51:35.448Z,1.73
2019-05-14T02:54:01.865Z,1.57
2019-05-14T02:56:29.537Z,1.80
2019-05-14T02:59:00.450Z,1.53
2019-05-14T03:01:30.165Z,1.77
2019-05-14T03:03:55.813Z,1.93
2019-05-14T03:06:22.214Z,2.50
2019-05-14T03:08:49.377Z,1.50
2019-05-14T03:11:16.070Z,2.17
2019-05-14T03:13:42.424Z,1.80
2019-05-14T03:16:22.239Z,2.00
2019-05-14T03:18:39.593Z,1.70
2019-05-14T03:21:05.562Z,2.13
2019-05-14T03:23:33.008Z,2.03
2019-05-14T03:26:00.492Z,1.87
2019-05-14T03:28:30.366Z,2.00
2019-05-14T03:31:01.928Z,1.70
2019-05-14T03:33:24.035Z,1.60
2019-05-14T03:35:58.841Z,1.40
2019-05-14T03:38:19.675Z,1.87
2019-05-14T03:40:49.368Z,2.00
2019-05-14T03:43:15.611Z,1.60
2019-05-14T03:45:41.988Z,2.23
2019-05-14T03:48:10.287Z,2.37
2019-05-14T03:50:38.925Z,2.10
2019-05-14T03:53:05.010Z,2.00
2019-05-14T03:55:31.332Z,1.97
2019-05-14T03:57:59.528Z,2.67
2019-05-14T04:00:49.998Z,1.80
2019-05-14T04:03:19.475Z,1.83
2019-05-14T04:05:49.267Z,2.00
2019-05-14T04:08:17.130Z,2.50
2019-05-14T04:10:50.656Z,2.03
2019-05-14T04:13:14.958Z,1.30
2019-05-14T04:15:44.314Z,2.13
2019-05-14T04:18:12.344Z,2.20
2019-05-14T04:20:39.488Z,1.70
2019-05-14T04:23:09.066Z,1.77
2019-05-14T04:25:35.157Z,2.00
2019-05-14T04:28:03.191Z,1.60
2019-05-14T04:30:31.624Z,1.77
2019-05-14T04:33:00.988Z,2.10
2019-05-14T04:35:29.629Z,2.27
2019-05-14T04:37:58.699Z,1.90
2019-05-14T04:40:23.899Z,2.20
2019-05-14T04:42:50.631Z,2.00
2019-05-14T04:45:19.658Z,1.87
2019-05-14T04:47:45.475Z,1.67
2019-05-14T04:50:11.889Z,1.93
2019-05-14T04:52:40.216Z,2.00
2019-05-14T04:55:09.859Z,1.70
2019-05-14T04:57:38.360Z,1.70
2019-05-14T05:00:04.458Z,2.43
2019-05-14T05:02:30.837Z,2.07
2019-05-14T05:04:59.406Z,2.07
2019-05-14T05:07:25.666Z,2.33
2019-05-14T05:09:51.991Z,2.03
2019-05-14T05:12:19.778Z,2.07
2019-05-14T05:14:49.061Z,3.00
2019-05-14T05:17:15.194Z,2.10
2019-05-14T05:19:45.332Z,2.03
2019-05-14T05:22:10.179Z,2.37
2019-05-14T05:24:38.133Z,2.60
2019-05-14T05:27:04.781Z,2.50
2019-05-14T05:29:31.158Z,2.30
2019-05-14T05:31:59.292Z,2.27
2019-05-14T05:34:28.142Z,2.23
2019-05-14T05:36:54.078Z,2.77
2019-05-14T05:39:20.437Z,2.33
2019-05-14T05:41:49.173Z,2.40
2019-05-14T05:44:15.334Z,3.33
2019-05-14T05:46:43.304Z,2.13
2019-05-14T05:49:09.787Z,2.97
2019-05-14T05:51:36.180Z,2.03
2019-05-14T05:54:02.615Z,2.43
2019-05-14T05:56:29.031Z,2.60
2019-05-14T05:58:55.776Z,4.30
2019-05-14T06:01:37.619Z,2.37
2019-05-14T06:03:51.782Z,2.90
2019-05-14T06:06:19.241Z,2.40
2019-05-14T06:08:48.880Z,2.10
2019-05-14T06:11:14.506Z,2.33
2019-05-14T06:13:41.978Z,2.97
2019-05-14T06:16:09.507Z,2.10
2019-05-14T06:18:39.349Z,2.80
2019-05-14T06:21:05.938Z,2.43
2019-05-14T06:23:33.898Z,1.90
2019-05-14T06:26:01.163Z,2.50
2019-05-14T06:28:32.501Z,1.70
2019-05-14T06:31:01.925Z,2.47
2019-05-14T06:33:28.760Z,2.00
2019-05-14T06:35:55.460Z,3.90
2019-05-14T06:38:22.237Z,3.37
2019-05-14T06:40:49.136Z,1.97
2019-05-14T06:43:15.617Z,2.17
2019-05-14T06:45:41.969Z,2.00
2019-05-14T06:48:08.794Z,1.77
2019-05-14T06:50:35.363Z,2.27
2019-05-14T06:53:02.101Z,1.37
2019-05-14T06:55:28.529Z,1.77
2019-05-14T06:57:54.843Z,1.50
2019-05-14T07:00:21.683Z,1.73
2019-05-14T07:02:49.067Z,1.30
2019-05-14T07:05:15.879Z,1.47
2019-05-14T07:07:42.216Z,1.30
2019-05-14T07:10:19.652Z,1.13
2019-05-14T07:12:46.683Z,1.20
2019-05-14T07:15:13.665Z,1.87
2019-05-14T07:17:40.013Z,1.30
2019-05-14T07:20:08.901Z,1.60
2019-05-14T07:22:35.647Z,1.87
2019-05-14T07:25:05.244Z,1.87
2019-05-14T07:27:31.653Z,1.50
2019-05-14T07:30:05.252Z,1.33
2019-05-14T07:32:32.693Z,1.40
2019-05-14T07:34:59.571Z,1.07
2019-05-14T07:37:28.446Z,1.37
2019-05-14T07:39:54.915Z,1.40
2019-05-14T07:42:21.349Z,1.10
2019-05-14T07:44:48.553Z,1.60
2019-05-14T07:47:15.187Z,1.47
2019-05-14T07:49:41.863Z,1.67
2019-05-14T07:52:09.440Z,1.00
2019-05-14T07:54:35.977Z,1.10
2019-05-14T07:57:02.317Z,0.90
2019-05-14T07:59:28.917Z,0.90
2019-05-14T08:01:55.436Z,1.00
2019-05-14T08:04:21.775Z,0.93
2019-05-14T08:06:48.778Z,1.27
2019-05-14T08:09:15.274Z,0.90
2019-05-14T08:11:41.652Z,0.87
2019-05-14T08:14:09.066Z,1.00
2019-05-14T08:16:38.157Z,1.20
2019-05-14T08:19:09.126Z,1.30
2019-05-14T08:21:34.180Z,0.90
2019-05-14T08:24:00.585Z,1.00
2019-05-14T08:26:28.763Z,1.10
2019-05-14T08:28:55.286Z,1.20
2019-05-14T08:31:21.612Z,1.17
2019-05-14T08:33:48.924Z,0.90
2019-05-14T08:36:18.182Z,1.30
2019-05-14T08:38:45.401Z,0.90
2019-05-14T08:41:12.063Z,0.87
2019-05-14T08:43:39.764Z,0.90
2019-05-14T08:46:08.217Z,1.33
2019-05-14T08:48:34.707Z,1.00
2019-05-14T08:51:01.021Z,1.33
2019-05-14T08:53:29.064Z,1.43
2019-05-14T08:55:55.520Z,1.07
2019-05-14T08:58:21.912Z,1.07
2019-05-14T09:00:48.524Z,1.00
2019-05-14T09:03:19.272Z,1.30
2019-05-14T09:05:45.990Z,1.30
2019-05-14T09:08:12.360Z,1.00
2019-05-14T09:10:40.300Z,1.20
2019-05-14T09:13:08.641Z,1.10
2019-05-14T09:15:35.104Z,0.90
2019-05-14T09:18:03.526Z,1.03
2019-05-14T09:20:29.712Z,1.00
2019-05-14T09:22:56.146Z,1.13
2019-05-14T09:25:22.524Z,1.13
2019-05-14T09:27:49.411Z,1.10
2019-05-14T09:30:23.937Z,1.00
2019-05-14T09:32:59.354Z,1.30
2019-05-14T09:35:29.051Z,0.87
2019-05-14T09:37:59.227Z,0.80
2019-05-14T09:40:25.526Z,1.47
2019-05-14T09:42:51.856Z,0.90
2019-05-14T09:45:19.239Z,1.10
2019-05-14T09:47:50.329Z,1.17
2019-05-14T09:50:18.604Z,1.13
2019-05-14T09:52:42.757Z,1.20
2019-05-14T09:55:09.707Z,1.00
2019-05-14T09:57:38.616Z,1.00
2019-05-14T10:00:09.104Z,1.37
2019-05-14T10:02:39.009Z,1.20
2019-05-14T10:05:04.784Z,1.23
2019-05-14T10:07:33.033Z,0.90
2019-05-14T10:09:59.450Z,1.30
2019-05-14T10:12:25.813Z,0.80
2019-05-14T10:14:53.244Z,0.83
2019-05-14T10:17:19.710Z,0.90
2019-05-14T10:19:46.088Z,1.10
2019-05-14T10:22:12.409Z,0.90
2019-05-14T10:24:38.951Z,1.10
2019-05-14T10:27:05.352Z,0.93
2019-05-14T10:29:31.900Z,1.00
2019-05-14T10:31:59.230Z,1.30
2019-05-14T10:34:28.762Z,0.97
2019-05-14T10:36:55.084Z,1.20
2019-05-14T10:39:21.553Z,1.30
2019-05-14T10:41:49.322Z,1.00
2019-05-14T10:44:18.521Z,1.50
2019-05-14T10:46:44.446Z,1.40
2019-05-14T10:49:19.440Z,0.90
2019-05-14T10:51:39.121Z,1.23
2019-05-14T10:54:21.006Z,1.10
2019-05-14T10:56:38.988Z,1.10
2019-05-14T10:59:05.312Z,1.57
2019-05-14T11:01:31.644Z,1.30
2019-05-14T11:04:11.457Z,1.07
2019-05-14T11:06:38.795Z,1.10
2019-05-14T11:09:08.842Z,0.83
2019-05-14T11:11:34.334Z,1.10
2019-05-14T11:14:00.677Z,1.10
2019-05-14T11:16:28.348Z,1.20
2019-05-14T11:18:57.389Z,1.00
2019-05-14T11:21:26.846Z,0.93
2019-05-14T11:23:51.491Z,1.00
2019-05-14T11:26:18.598Z,1.40
2019-05-14T11:28:45.594Z,1.20
2019-05-14T11:31:12.150Z,1.70
2019-05-14T11:33:41.753Z,1.47
2019-05-14T11:36:09.309Z,1.77
2019-05-14T11:38:37.433Z,1.47
2019-05-14T11:41:09.611Z,1.40
2019-05-14T11:43:39.704Z,1.10
2019-05-14T11:46:09.016Z,0.80
2019-05-14T11:48:38.942Z,1.23
2019-05-14T11:51:09.069Z,1.40
2019-05-14T11:53:38.574Z,1.43
2019-05-14T11:56:08.611Z,0.90
2019-05-14T11:58:39.420Z,1.20
2019-05-14T12:01:09.231Z,1.20
2019-05-14T12:03:39.024Z,0.90
2019-05-14T12:06:05.234Z,1.37
2019-05-14T12:08:31.963Z,1.20
2019-05-14T12:10:59.389Z,1.20
2019-05-14T12:13:29.856Z,1.30
2019-05-14T12:15:55.740Z,1.53
2019-05-14T12:18:22.252Z,1.93
2019-05-14T12:20:49.851Z,1.77
2019-05-14T12:23:18.991Z,1.63
2019-05-14T12:25:45.156Z,1.10
2019-05-14T12:28:13.651Z,1.47
2019-05-14T12:30:40.663Z,1.47
2019-05-14T12:33:07.612Z,1.43
2019-05-14T12:35:34.361Z,1.23
2019-05-14T12:38:01.095Z,1.77
2019-05-14T12:40:28.937Z,1.03
2019-05-14T12:42:58.609Z,0.90
2019-05-14T12:45:25.130Z,1.27
2019-05-14T12:47:51.912Z,1.00
2019-05-14T12:50:19.122Z,0.97
2019-05-14T12:52:48.273Z,0.93
2019-05-14T12:55:30.445Z,1.00
2019-05-14T12:58:02.060Z,1.27
2019-05-14T13:00:28.757Z,1.30
2019-05-14T13:02:55.349Z,1.30
2019-05-14T13:05:22.800Z,1.40
2019-05-14T13:07:51.151Z,1.70
2019-05-14T13:10:19.762Z,1.40
2019-05-14T13:12:48.394Z,1.50
2019-05-14T13:15:16.124Z,2.10
2019-05-14T13:17:42.835Z,1.87
2019-05-14T13:20:18.720Z,1.47
2019-05-14T13:22:50.079Z,2.83
2019-05-14T13:25:15.422Z,2.00
2019-05-14T13:27:41.882Z,1.80
2019-05-14T13:30:09.225Z,1.77
2019-05-14T13:32:39.070Z,2.27
2019-05-14T13:35:09.561Z,1.67
2019-05-14T13:37:34.908Z,1.80
2019-05-14T13:40:05.178Z,1.90
2019-05-14T13:42:32.587Z,2.23
2019-05-14T13:44:58.985Z,1.80
2019-05-14T13:47:25.420Z,2.57
2019-05-14T13:49:51.824Z,1.87
2019-05-14T13:52:18.839Z,2.00
2019-05-14T13:54:46.143Z,1.60
2019-05-14T13:57:12.516Z,1.63
2019-05-14T13:59:44.005Z,1.67
2019-05-14T14:02:09.855Z,2.83
2019-05-14T14:04:38.195Z,2.30
2019-05-14T14:07:05.249Z,2.03
2019-05-14T14:09:34.677Z,1.87
2019-05-14T14:12:01.220Z,1.50
2019-05-14T14:14:29.141Z,1.93
2019-05-14T14:16:58.151Z,3.73
2019-05-14T14:19:24.269Z,1.73
2019-05-14T14:21:51.896Z,2.27
2019-05-14T14:24:19.744Z,1.53
2019-05-14T14:26:48.936Z,3.00
2019-05-14T14:29:15.098Z,1.60
2019-05-14T14:31:41.885Z,1.80
2019-05-14T14:34:09.318Z,1.77
2019-05-14T14:36:38.438Z,2.50
2019-05-14T14:39:05.770Z,1.43
2019-05-14T14:41:32.163Z,3.10
2019-05-14T14:43:58.542Z,3.43
2019-05-14T14:46:25.098Z,1.63
2019-05-14T14:48:51.400Z,1.57
2019-05-14T14:51:19.246Z,1.80
2019-05-14T14:53:58.424Z,2.20
2019-05-14T14:56:15.790Z,2.43
2019-05-14T14:58:42.597Z,1.97
2019-05-14T15:01:09.740Z,1.93
2019-05-14T15:03:41.565Z,1.50
2019-05-14T15:06:09.583Z,2.13
2019-05-14T15:08:38.910Z,1.70
2019-05-14T15:11:08.300Z,1.93
2019-05-14T15:13:33.922Z,1.60
2019-05-14T15:16:01.063Z,1.73
2019-05-14T15:18:28.843Z,1.80
2019-05-14T15:20:55.647Z,2.00
2019-05-14T15:23:24.197Z,1.40
2019-05-14T15:25:52.496Z,1.50
2019-05-14T15:28:19.097Z,2.00
2019-05-14T15:30:45.667Z,1.97
2019-05-14T15:33:12.031Z,2.27
2019-05-14T15:35:38.430Z,1.67
2019-05-14T15:38:04.860Z,1.73
2019-05-14T15:40:31.578Z,1.40
2019-05-14T15:43:01.614Z,1.60
2019-05-14T15:45:28.667Z,1.77
2019-05-14T15:47:58.455Z,2.03
2019-05-14T15:50:23.515Z,1.77
2019-05-14T15:52:50.037Z,1.37
2019-05-14T15:55:18.336Z,1.30
2019-05-14T15:57:45.046Z,1.20
2019-05-14T16:00:12.400Z,1.37
2019-05-14T16:02:39.706Z,1.50
2019-05-14T16:05:09.720Z,1.10
2019-05-14T16:07:35.285Z,1.50
2019-05-14T16:10:01.831Z,1.30
2019-05-14T16:12:32.256Z,1.20
2019-05-14T16:14:57.555Z,1.20
2019-05-14T16:17:26.223Z,1.30
2019-05-14T16:19:52.261Z,0.90
2019-05-14T16:22:19.461Z,2.00
2019-05-14T16:24:56.426Z,1.03
2019-05-14T16:27:14.344Z,1.00
2019-05-14T16:29:45.450Z,1.00
2019-05-14T16:32:10.301Z,0.77
2019-05-14T16:34:41.038Z,0.83
2019-05-14T16:37:11.017Z,0.77
2019-05-14T16:39:36.272Z,1.30
2019-05-14T16:42:02.738Z,1.13
2019-05-14T16:44:31.034Z,1.50
2019-05-14T16:46:58.623Z,1.27
2019-05-14T16:49:25.371Z,0.90
2019-05-14T16:51:51.846Z,1.00
2019-05-14T16:54:18.421Z,1.10
2019-05-14T16:56:45.094Z,2.03
2019-05-14T16:59:11.676Z,2.00
2019-05-14T17:01:38.029Z,1.57
2019-05-14T17:04:05.161Z,1.63
2019-05-14T17:06:34.719Z,0.80
2019-05-14T17:09:00.403Z,1.00
2019-05-14T17:11:29.147Z,2.50
2019-05-14T17:13:58.009Z,1.20
2019-05-14T17:16:28.911Z,1.33
2019-05-14T17:18:55.210Z,0.80
2019-05-14T17:21:23.098Z,1.00
2019-05-14T17:23:58.349Z,1.50
2019-05-14T17:26:28.774Z,1.03
2019-05-14T17:28:59.461Z,0.97
2019-05-14T17:31:26.412Z,1.37
2019-05-14T17:33:54.176Z,1.07
2019-05-14T17:36:28.241Z,1.20
2019-05-14T17:38:54.627Z,1.10
2019-05-14T17:41:21.186Z,0.80
2019-05-14T17:43:49.344Z,0.90
2019-05-14T17:46:18.411Z,0.90
2019-05-14T17:48:45.073Z,1.93
2019-05-14T17:51:11.571Z,1.00
2019-05-14T17:53:38.749Z,1.20
2019-05-14T17:56:05.390Z,0.90
2019-05-14T17:58:31.856Z,1.20
2019-05-14T18:00:58.431Z,1.30
2019-05-14T18:03:25.249Z,1.07
2019-05-14T18:05:51.709Z,0.90
2019-05-14T18:08:18.621Z,1.07
2019-05-14T18:10:49.714Z,0.70
2019-05-14T18:13:18.169Z,1.87
2019-05-14T18:15:45.178Z,0.80
2019-05-14T18:18:12.229Z,0.90
2019-05-14T18:20:39.642Z,0.80
2019-05-14T18:23:11.488Z,1.00
2019-05-14T18:25:34.982Z,0.90
2019-05-14T18:28:02.344Z,0.87
2019-05-14T18:30:29.122Z,0.83
2019-05-14T18:32:58.274Z,1.10
2019-05-14T18:35:24.703Z,1.27
2019-05-14T18:37:51.105Z,0.90
2019-05-14T18:40:18.330Z,1.10
2019-05-14T18:42:44.905Z,1.17
2019-05-14T18:45:11.903Z,1.03
2019-05-14T18:47:39.909Z,1.60
2019-05-14T18:50:09.045Z,1.63
2019-05-14T18:52:35.866Z,1.40
2019-05-14T18:55:04.951Z,1.43
2019-05-14T18:57:31.474Z,1.00
2019-05-14T18:59:58.807Z,0.83
2019-05-14T19:02:26.467Z,1.33
2019-05-14T19:04:52.922Z,1.07
2019-05-14T19:07:19.294Z,1.40
2019-05-14T19:09:46.059Z,2.10
2019-05-14T19:12:12.459Z,1.40
2019-05-14T19:14:39.203Z,1.30
2019-05-14T19:17:05.704Z,1.30
2019-05-14T19:19:32.102Z,1.10
2019-05-14T19:21:58.740Z,1.27
2019-05-14T19:24:25.483Z,1.33
2019-05-14T19:26:51.849Z,1.27
2019-05-14T19:29:18.521Z,0.90
2019-05-14T19:31:45.495Z,1.03
2019-05-14T19:34:11.963Z,1.50
2019-05-14T19:36:40.190Z,1.10
2019-05-14T19:39:08.621Z,1.27
2019-05-14T19:41:35.007Z,1.20
2019-05-14T19:44:01.727Z,1.30
2019-05-14T19:46:29.111Z,0.93
2019-05-14T19:48:55.895Z,0.80
2019-05-14T19:51:22.473Z,1.63
2019-05-14T19:53:52.309Z,1.20
2019-05-14T19:56:18.173Z,1.70
2019-05-14T19:58:44.633Z,1.03
2019-05-14T20:01:11.029Z,1.30
2019-05-14T20:03:39.066Z,1.47
2019-05-14T20:06:05.394Z,1.43
2019-05-14T20:08:32.935Z,1.00
2019-05-14T20:10:59.626Z,1.13
2019-05-14T20:13:28.572Z,1.50
2019-05-14T20:15:55.461Z,1.97
2019-05-14T20:18:21.880Z,1.53
2019-05-14T20:20:49.271Z,1.17
2019-05-14T20:23:15.786Z,0.90
2019-05-14T20:25:42.488Z,1.20
2019-05-14T20:28:08.862Z,1.17
2019-05-14T20:30:38.570Z,1.17
2019-05-14T20:33:04.560Z,1.30
2019-05-14T20:35:34.879Z,1.60
2019-05-14T20:38:02.398Z,1.10
2019-05-14T20:40:28.816Z,1.20
2019-05-14T20:42:55.365Z,2.07
2019-05-14T20:45:22.528Z,1.60
2019-05-14T20:47:49.196Z,1.50
2019-05-14T20:50:18.124Z,1.57
2019-05-14T20:52:44.290Z,1.70
2019-05-14T20:55:11.082Z,2.70
2019-05-14T20:57:38.591Z,1.37
2019-05-14T21:00:07.680Z,1.40
2019-05-14T21:02:34.235Z,1.87
2019-05-14T21:05:04.273Z,1.20
2019-05-14T21:07:29.268Z,1.00
2019-05-14T21:09:55.723Z,1.20
2019-05-14T21:12:23.487Z,1.57
2019-05-14T21:14:49.852Z,2.43
2019-05-14T21:17:19.135Z,1.50
2019-05-14T21:19:49.247Z,1.60
2019-05-14T21:22:15.806Z,1.47
2019-05-14T21:24:42.194Z,1.30
2019-05-14T21:27:09.421Z,1.43
2019-05-14T21:29:38.287Z,1.47
2019-05-14T21:32:04.282Z,1.27
2019-05-14T21:34:31.122Z,1.47
2019-05-14T21:36:58.506Z,1.23
2019-05-14T21:39:26.003Z,1.53
2019-05-14T21:41:52.368Z,1.23
2019-05-14T21:44:18.888Z,1.67
2019-05-14T21:46:48.239Z,1.10
2019-05-14T21:49:14.713Z,1.43
2019-05-14T21:51:41.184Z,1.93
2019-05-14T21:54:09.485Z,1.50
2019-05-14T21:56:38.452Z,1.20
2019-05-14T21:59:04.131Z,1.17
2019-05-14T22:01:31.011Z,1.03
2019-05-14T22:03:59.294Z,1.40
2019-05-14T22:06:28.949Z,1.40
2019-05-14T22:08:55.164Z,1.20
2019-05-14T22:11:21.575Z,1.10
2019-05-14T22:13:49.594Z,1.53
2019-05-14T22:16:16.286Z,1.40
2019-05-14T22:18:43.008Z,1.30
2019-05-14T22:21:09.330Z,1.20
2019-05-14T22:23:38.527Z,1.10
2019-05-14T22:26:04.252Z,1.50
2019-05-14T22:28:30.582Z,1.30
2019-05-14T22:30:58.724Z,1.37
2019-05-14T22:33:25.175Z,1.00
2019-05-14T22:35:51.527Z,1.27
2019-05-14T22:38:20.236Z,1.40
2019-05-14T22:40:48.155Z,1.00
2019-05-14T22:43:14.469Z,1.20
2019-05-14T22:45:40.821Z,1.40
2019-05-14T22:48:09.394Z,1.07
2019-05-14T22:50:35.455Z,1.10
2019-05-14T22:53:01.778Z,1.20
2019-05-14T22:55:28.989Z,1.23
2019-05-14T22:57:59.373Z,1.20
2019-05-14T23:00:25.355Z,1.23
2019-05-14T23:02:51.692Z,1.10
2019-05-14T23:05:19.219Z,1.00
2019-05-14T23:07:45.797Z,0.97
2019-05-14T23:10:12.555Z,1.47
2019-05-14T23:12:38.899Z,1.20
2019-05-14T23:15:06.266Z,1.40
2019-05-14T23:17:32.653Z,0.90
2019-05-14T23:19:58.987Z,0.83
2019-05-14T23:22:25.334Z,1.00
2019-05-14T23:24:51.676Z,0.90
2019-05-14T23:27:18.865Z,1.33
2019-05-14T23:29:45.353Z,1.40
2019-05-14T23:32:11.700Z,1.10
2019-05-14T23:34:38.187Z,0.90
2019-05-14T23:37:04.558Z,1.57
2019-05-14T23:39:31.194Z,1.17
2019-05-14T23:41:58.297Z,1.00
2019-05-14T23:44:25.162Z,1.07
2019-05-14T23:46:51.541Z,1.10
2019-05-14T23:49:18.476Z,1.00
2019-05-14T23:51:44.879Z,1.40
2019-05-14T23:54:11.256Z,0.97
2019-05-14T23:56:38.464Z,1.13
2019-05-14T23:59:05.015Z,1.03
